Time;durP1;ratioP1;P1;durP2;ratioP2;P2;SDS_P1;SDS_P2;PMS_P1;PMS_P2;Temp;Humidity;BMP_temperature;BMP_pressure;BME280_temperature;BME280_humidity;BME280_pressure;Samples;Min_cycle;Max_cycle;Signal;HPM_P1;HPM_P2
2022/04/19 00:00:52;;;;;;;6.82;3.60;;;3.30;39.80;;;;;;5034908;28;49067;-63
2022/04/19 00:03:18;;;;;;;4.93;3.03;;;3.30;39.90;;;;;;5030944;28;46332;-61
2022/04/19 00:05:44;;;;;;;4.60;3.30;;;3.30;40.00;;;;;;5034859;28;46501;-62
2022/04/19 00:08:11;;;;;;;5.60;3.35;;;3.30;40.10;;;;;;5030240;28;46425;-61
2022/04/19 00:10:40;;;;;;;5.53;2.90;;;3.30;40.20;;;;;;5033614;28;46879;-62
2022/04/19 00:13:07;;;;;;;5.03;3.28;;;3.20;40.40;;;;;;5030244;28;46300;-62
2022/04/19 00:15:33;;;;;;;5.00;3.28;;;3.10;40.60;;;;;;5029326;28;46369;-63
2022/04/19 00:18:01;;;;;;;4.50;3.03;;;3.10;40.80;;;;;;5030638;28;46480;-63
2022/04/19 00:20:30;;;;;;;5.32;3.22;;;3.10;40.80;;;;;;5028211;28;46960;-63
2022/04/19 00:22:57;;;;;;;4.30;3.08;;;3.10;40.90;;;;;;5030932;28;46209;-63
2022/04/19 00:25:23;;;;;;;5.25;3.35;;;3.10;40.90;;;;;;5031462;28;46419;-62
2022/04/19 00:27:50;;;;;;;5.00;3.25;;;3.10;41.10;;;;;;5028425;28;46526;-62
2022/04/19 00:30:15;;;;;;;8.80;3.28;;;3.20;41.10;;;;;;5031348;28;46373;-62
2022/04/19 00:32:42;;;;;;;5.37;2.83;;;3.20;41.00;;;;;;5027531;28;46589;-62
2022/04/19 00:35:09;;;;;;;4.40;3.17;;;3.30;41.00;;;;;;5028503;28;46483;-62
2022/04/19 00:37:36;;;;;;;8.10;3.00;;;3.30;40.90;;;;;;5032669;28;46312;-64
2022/04/19 00:40:08;;;;;;;5.78;3.20;;;3.30;40.90;;;;;;5025218;28;47216;-61
2022/04/19 00:42:34;;;;;;;6.05;3.40;;;3.30;41.00;;;;;;5030370;28;46385;-64
2022/04/19 00:45:05;;;;;;;4.60;3.17;;;3.30;40.80;;;;;;5027216;28;46378;-63
2022/04/19 00:47:34;;;;;;;6.75;2.80;;;3.30;41.10;;;;;;5032028;28;46335;-65
2022/04/19 00:50:01;;;;;;;7.00;3.10;;;3.40;41.10;;;;;;5029167;28;46448;-63
2022/04/19 00:52:31;;;;;;;4.93;3.00;;;3.30;41.10;;;;;;5023358;28;46355;-62
2022/04/19 00:54:58;;;;;;;4.60;3.10;;;3.30;41.20;;;;;;5031223;28;46398;-63
2022/04/19 00:57:24;;;;;;;4.85;2.90;;;3.20;41.30;;;;;;5036154;28;46345;-62
2022/04/19 00:59:53;;;;;;;5.80;3.00;;;3.20;41.50;;;;;;5026257;28;47170;-62
2022/04/19 01:02:19;;;;;;;4.93;3.05;;;3.10;41.60;;;;;;5034015;28;46372;-62
2022/04/19 01:04:45;;;;;;;7.60;2.83;;;3.20;42.00;;;;;;5030842;28;46518;-63
2022/04/19 01:07:11;;;;;;;10.77;3.00;;;3.00;42.10;;;;;;5026824;28;46511;-63
2022/04/19 01:09:37;;;;;;;5.65;2.85;;;2.90;42.20;;;;;;5028887;28;46477;-63
2022/04/19 01:14:49;;;;;;;5.50;2.72;;;2.80;42.50;;;;;;5023191;28;46428;-62
2022/04/19 01:17:15;;;;;;;5.68;3.17;;;2.70;42.60;;;;;;5032341;28;46289;-63
2022/04/19 01:19:42;;;;;;;4.47;2.83;;;2.60;42.60;;;;;;5028130;28;47268;-62
2022/04/19 01:22:12;;;;;;;4.60;2.70;;;2.60;42.80;;;;;;5029322;28;46347;-63
2022/04/19 01:24:39;;;;;;;5.70;2.85;;;2.50;42.80;;;;;;5029182;28;46389;-62
2022/04/19 01:27:05;;;;;;;4.90;3.03;;;2.60;42.90;;;;;;5024746;28;45906;-62
2022/04/19 01:29:33;;;;;;;5.35;3.20;;;2.50;42.90;;;;;;5033477;28;46418;-62
2022/04/19 01:32:03;;;;;;;4.70;2.97;;;2.50;43.00;;;;;;5027550;28;46702;-64
2022/04/19 01:34:29;;;;;;;6.07;3.05;;;2.50;43.10;;;;;;5032381;28;46315;-63
2022/04/19 01:36:54;;;;;;;4.10;2.63;;;2.60;43.20;;;;;;5029958;28;46315;-64
2022/04/19 01:40:16;;;;;;;7.00;2.90;;;2.50;43.00;;;;;;5030265;28;46506;-64
2022/04/19 01:42:06;;;;;;;6.07;3.05;;;2.60;42.90;;;;;;5028934;28;46471;-62
2022/04/19 01:44:38;;;;;;;4.80;2.90;;;2.60;42.70;;;;;;5030687;28;46377;-61
2022/04/19 01:47:07;;;;;;;4.93;2.42;;;2.70;42.80;;;;;;5029262;28;46418;-63
2022/04/19 01:49:36;;;;;;;3.40;2.45;;;2.60;42.70;;;;;;5025970;28;46401;-63
2022/04/19 01:52:03;;;;;;;4.45;2.53;;;2.70;42.70;;;;;;5029293;28;46355;-62
2022/04/19 01:54:29;;;;;;;5.22;3.10;;;2.70;42.50;;;;;;5028488;28;46369;-62
2022/04/19 01:56:56;;;;;;;5.47;3.05;;;2.70;42.40;;;;;;5028404;28;46221;-63
2022/04/19 01:59:21;;;;;;;3.28;2.33;;;2.70;42.50;;;;;;5027979;28;46411;-62
2022/04/19 02:01:48;;;;;;;3.90;2.67;;;2.70;42.50;;;;;;5028888;28;46377;-61
2022/04/19 02:04:14;;;;;;;4.22;2.72;;;2.70;42.60;;;;;;5026860;28;46612;-62
2022/04/19 02:06:41;;;;;;;4.20;2.20;;;2.70;42.70;;;;;;5028256;28;46037;-63
2022/04/19 02:09:06;;;;;;;3.75;2.78;;;2.70;42.80;;;;;;5028738;28;46593;-63
2022/04/19 02:11:32;;;;;;;4.03;2.73;;;2.70;42.90;;;;;;5026539;28;46402;-62
2022/04/19 02:13:59;;;;;;;4.37;2.37;;;2.60;43.00;;;;;;5028008;28;46390;-61
2022/04/19 02:16:24;;;;;;;4.28;2.80;;;2.60;43.10;;;;;;5024099;28;46379;-63
2022/04/19 02:18:50;;;;;;;5.37;3.10;;;2.60;43.30;;;;;;5026994;28;46626;-62
2022/04/19 02:21:16;;;;;;;4.73;3.50;;;2.50;43.30;;;;;;5024664;28;46685;-63
2022/04/19 02:23:41;;;;;;;5.37;3.17;;;2.60;43.30;;;;;;5027404;28;46276;-63
2022/04/19 02:26:07;;;;;;;6.30;3.80;;;2.60;43.20;;;;;;5030730;28;46335;-63
2022/04/19 02:28:34;;;;;;;5.72;3.72;;;2.70;43.10;;;;;;5034588;28;47021;-62
2022/04/19 02:30:59;;;;;;;4.65;3.35;;;2.80;43.00;;;;;;5027976;28;45922;-62
2022/04/19 02:33:25;;;;;;;6.67;3.50;;;2.80;42.90;;;;;;5034747;28;46445;-64
2022/04/19 02:35:52;;;;;;;4.27;2.90;;;2.80;43.10;;;;;;5030475;28;46535;-60
2022/04/19 02:38:18;;;;;;;4.88;2.58;;;2.80;43.10;;;;;;5026961;28;46716;-63
2022/04/19 02:40:44;;;;;;;8.03;2.93;;;2.90;43.10;;;;;;5032432;28;46319;-62
2022/04/19 02:43:09;;;;;;;3.90;3.10;;;3.00;43.10;;;;;;5025984;28;46365;-63
2022/04/19 02:45:35;;;;;;;5.03;3.23;;;3.00;43.10;;;;;;5029922;28;46384;-62
2022/04/19 02:48:06;;;;;;;6.50;2.60;;;3.00;43.10;;;;;;5027236;28;46497;-62
2022/04/19 02:50:43;;;;;;;7.88;2.63;;;3.10;43.30;;;;;;5030291;28;46539;-61
2022/04/19 02:53:09;;;;;;;4.53;2.83;;;3.20;43.60;;;;;;5028429;28;46492;-63
2022/04/19 02:55:35;;;;;;;5.22;2.90;;;3.10;43.30;;;;;;5028511;28;46564;-62
2022/04/19 02:58:00;;;;;;;6.43;3.10;;;3.10;43.30;;;;;;5029961;28;46346;-63
2022/04/19 03:00:26;;;;;;;4.87;2.97;;;3.20;43.30;;;;;;5025969;28;46394;-60
2022/04/19 03:02:52;;;;;;;4.37;3.00;;;3.20;43.30;;;;;;5025342;28;46450;-61
2022/04/19 03:05:19;;;;;;;5.75;2.95;;;3.20;43.30;;;;;;5027991;28;45963;-62
2022/04/19 03:07:45;;;;;;;4.95;3.00;;;3.30;43.30;;;;;;5024650;28;46579;-60
2022/04/19 03:10:11;;;;;;;6.10;2.58;;;3.30;43.30;;;;;;5032692;28;46430;-63
2022/04/19 03:12:36;;;;;;;3.70;2.90;;;3.30;43.20;;;;;;5028691;28;46693;-63
2022/04/19 03:15:02;;;;;;;5.43;2.57;;;3.40;43.40;;;;;;5024981;28;46574;-63
2022/04/19 03:17:28;;;;;;;6.33;2.73;;;3.30;43.30;;;;;;5033152;28;46316;-63
2022/04/19 03:19:54;;;;;;;4.37;2.67;;;3.30;43.50;;;;;;5032562;28;46374;-64
2022/04/19 03:22:19;;;;;;;5.67;3.43;;;3.20;43.50;;;;;;5035847;28;46516;-68
2022/04/19 03:27:41;;;;;;;4.10;2.90;;;3.00;44.00;;;;;;5030944;28;46326;-64
2022/04/19 03:30:08;;;;;;;5.07;2.60;;;2.90;44.20;;;;;;5032306;28;46364;-61
2022/04/19 03:32:35;;;;;;;2.65;2.10;;;2.80;44.30;;;;;;5036050;28;46473;-63
2022/04/19 03:35:00;;;;;;;7.03;2.60;;;2.80;44.50;;;;;;5027228;28;46819;-60
2022/04/19 03:37:26;;;;;;;3.83;2.40;;;2.80;44.50;;;;;;5030972;28;47106;-61
2022/04/19 03:39:52;;;;;;;7.53;2.60;;;2.70;44.60;;;;;;5039798;28;45871;-62
2022/04/19 03:42:17;;;;;;;6.23;3.57;;;2.70;44.50;;;;;;5031470;28;46355;-63
2022/04/19 03:44:43;;;;;;;4.13;2.93;;;2.70;44.50;;;;;;5031901;28;46616;-62
2022/04/19 03:47:09;;;;;;;7.80;3.10;;;2.60;44.70;;;;;;5032500;28;46332;-62
2022/04/19 03:49:39;;;;;;;5.33;3.07;;;2.60;44.60;;;;;;5026352;28;46385;-63
2022/04/19 03:52:06;;;;;;;4.22;2.33;;;2.60;44.70;;;;;;5037959;28;46366;-64
2022/04/19 03:54:34;;;;;;;5.25;3.13;;;2.60;44.70;;;;;;5033184;28;46474;-62
2022/04/19 03:57:04;;;;;;;3.65;2.63;;;2.60;44.50;;;;;;5029359;28;47157;-63
2022/04/19 03:59:31;;;;;;;3.50;2.55;;;2.70;44.40;;;;;;5026548;28;46344;-63
2022/04/19 04:01:57;;;;;;;4.25;2.60;;;2.80;44.30;;;;;;5032830;28;46491;-62
2022/04/19 04:04:22;;;;;;;6.45;3.70;;;2.80;44.20;;;;;;5033905;28;46351;-63
2022/04/19 04:06:48;;;;;;;3.63;2.57;;;2.90;44.20;;;;;;5026374;28;47294;-63
2022/04/19 04:09:14;;;;;;;5.70;3.10;;;2.90;44.20;;;;;;5036065;28;46372;-63
2022/04/19 04:11:39;;;;;;;5.70;3.17;;;2.90;44.30;;;;;;5028937;28;46370;-62
2022/04/19 04:14:05;;;;;;;5.70;3.20;;;2.90;44.20;;;;;;5033638;28;46435;-65
2022/04/19 04:16:30;;;;;;;4.27;3.10;;;3.00;44.10;;;;;;5029395;28;46798;-64
2022/04/19 04:18:56;;;;;;;4.40;3.00;;;3.00;44.00;;;;;;5028752;28;46751;-64
2022/04/19 04:21:22;;;;;;;13.03;3.90;;;3.10;44.00;;;;;;5030872;28;46458;-64
2022/04/19 04:23:47;;;;;;;4.67;3.27;;;3.20;43.80;;;;;;5029753;28;46554;-64
2022/04/19 04:26:13;;;;;;;3.90;2.60;;;3.30;43.70;;;;;;5031401;28;46225;-62
2022/04/19 04:28:38;;;;;;;5.33;3.30;;;3.40;43.60;;;;;;5029077;28;46276;-62
2022/04/19 04:31:06;;;;;;;4.27;2.87;;;3.50;43.50;;;;;;5031266;28;46325;-63
2022/04/19 04:33:31;;;;;;;5.10;3.43;;;3.60;43.60;;;;;;5028091;28;46607;-63
2022/04/19 04:35:58;;;;;;;6.80;3.30;;;3.70;43.40;;;;;;5030511;28;46411;-64
2022/04/19 04:38:23;;;;;;;7.82;3.30;;;3.70;43.50;;;;;;5027276;28;46382;-63
2022/04/19 04:40:49;;;;;;;4.10;2.80;;;3.90;43.60;;;;;;5029150;28;46278;-63
2022/04/19 04:43:15;;;;;;;5.00;3.20;;;3.80;43.70;;;;;;5031180;28;46370;-62
2022/04/19 04:45:40;;;;;;;6.43;3.10;;;3.90;43.70;;;;;;5026890;28;46391;-61
2022/04/19 04:50:50;;;;;;;3.85;2.50;;;4.00;43.70;;;;;;5024881;28;46315;-62
2022/04/19 04:53:16;;;;;;;6.00;2.77;;;4.00;44.90;;;;;;5029977;28;46365;-63
2022/04/19 04:55:41;;;;;;;7.60;3.00;;;4.10;43.70;;;;;;5033608;28;48040;-62
2022/04/19 04:58:09;;;;;;;12.00;3.07;;;4.20;43.80;;;;;;5034193;28;46349;-63
2022/04/19 05:00:35;;;;;;;3.17;2.40;;;4.20;44.00;;;;;;5037641;28;45876;-63
2022/04/19 05:03:00;;;;;;;5.07;2.70;;;4.30;43.90;;;;;;5037066;28;46276;-62
2022/04/19 05:05:26;;;;;;;4.57;2.77;;;4.30;43.90;;;;;;5031733;28;46437;-64
2022/04/19 05:07:51;;;;;;;6.93;3.17;;;4.40;44.20;;;;;;5033499;28;46382;-64
2022/04/19 05:10:17;;;;;;;5.70;2.93;;;4.40;44.30;;;;;;5032614;28;46434;-62
2022/04/19 05:12:42;;;;;;;6.20;3.17;;;4.40;44.60;;;;;;5029141;28;45851;-64
2022/04/19 05:15:09;;;;;;;6.43;2.63;;;4.50;44.70;;;;;;5032124;28;47197;-62
2022/04/19 05:17:34;;;;;;;4.53;2.92;;;4.50;44.60;;;;;;5030899;28;46393;-62
2022/04/19 05:20:00;;;;;;;4.40;2.73;;;4.70;44.40;;;;;;5033812;28;45870;-62
2022/04/19 05:22:26;;;;;;;3.50;2.70;;;5.20;44.20;;;;;;5029722;28;46697;-63
2022/04/19 05:24:52;;;;;;;7.23;3.07;;;5.70;44.00;;;;;;5026755;28;47649;-62
2022/04/19 05:27:17;;;;;;;3.57;2.53;;;6.20;43.90;;;;;;5031656;28;46390;-63
2022/04/19 05:29:43;;;;;;;4.47;2.60;;;6.70;43.90;;;;;;5023466;28;46319;-61
2022/04/19 05:32:10;;;;;;;6.30;2.97;;;7.00;43.50;;;;;;5028798;28;46572;-63
2022/04/19 05:34:35;;;;;;;3.50;2.30;;;7.40;43.60;;;;;;5027800;28;46468;-64
2022/04/19 05:37:01;;;;;;;7.93;2.70;;;7.80;42.90;;;;;;5024814;28;46345;-63
2022/04/19 05:39:26;;;;;;;6.70;2.60;;;8.40;42.20;;;;;;5029706;28;46441;-62
2022/04/19 05:41:52;;;;;;;6.97;2.70;;;9.10;41.50;;;;;;5025134;28;45867;-62
2022/04/19 05:44:18;;;;;;;6.63;3.07;;;9.70;40.90;;;;;;5027279;28;46364;-63
2022/04/19 05:46:43;;;;;;;4.93;2.73;;;10.20;39.50;;;;;;5030567;28;45824;-63
2022/04/19 05:49:09;;;;;;;3.40;2.50;;;10.70;39.10;;;;;;5039744;28;46482;-63
2022/04/19 05:51:35;;;;;;;4.40;2.90;;;11.00;39.00;;;;;;5039758;28;46232;-63
2022/04/19 05:54:01;;;;;;;9.10;3.10;;;11.40;38.30;;;;;;5035779;28;47022;-63
2022/04/19 05:56:27;;;;;;;5.83;3.30;;;11.80;37.80;;;;;;5037131;28;46418;-63
2022/04/19 05:58:53;;;;;;;5.50;2.80;;;12.20;36.80;;;;;;5036762;28;46396;-62
2022/04/19 06:01:18;;;;;;;5.63;2.73;;;12.50;36.60;;;;;;5041879;28;46538;-62
2022/04/19 06:06:29;;;;;;;5.83;3.27;;;13.00;35.30;;;;;;5037458;28;46553;-64
2022/04/19 06:08:54;;;;;;;4.60;2.53;;;13.50;34.50;;;;;;5039357;28;46474;-62
2022/04/19 06:11:21;;;;;;;4.80;3.30;;;13.70;33.60;;;;;;5040743;28;45969;-63
2022/04/19 06:13:47;;;;;;;7.73;3.30;;;14.10;31.90;;;;;;5032132;28;47002;-63
2022/04/19 06:16:12;;;;;;;5.97;3.20;;;14.60;30.10;;;;;;5037462;28;46471;-63
2022/04/19 06:18:38;;;;;;;6.73;2.40;;;14.70;29.40;;;;;;5039269;28;46271;-63
2022/04/19 06:21:05;;;;;;;4.70;3.10;;;14.80;29.50;;;;;;5029055;28;46458;-62
2022/04/19 06:23:32;;;;;;;8.53;2.50;;;15.00;27.70;;;;;;5032896;28;46502;-63
2022/04/19 06:25:58;;;;;;;4.07;2.77;;;14.60;27.30;;;;;;5038163;28;46382;-62
2022/04/19 06:28:24;;;;;;;14.13;3.50;;;13.70;28.70;;;;;;5030466;28;46388;-62
2022/04/19 06:30:49;;;;;;;5.00;2.60;;;13.00;29.50;;;;;;5031775;28;46354;-62
2022/04/19 06:33:15;;;;;;;4.83;3.00;;;12.50;30.40;;;;;;5035401;28;47326;-63
2022/04/19 06:35:41;;;;;;;8.60;3.33;;;12.20;31.40;;;;;;5030961;28;46365;-63
2022/04/19 06:38:07;;;;;;;7.30;2.83;;;12.70;29.90;;;;;;5029404;28;46392;-63
2022/04/19 06:40:33;;;;;;;7.57;3.03;;;13.80;27.70;;;;;;5025582;28;46461;-63
2022/04/19 06:42:59;;;;;;;6.43;2.63;;;14.50;25.90;;;;;;5036850;28;46376;-62
2022/04/19 06:45:24;;;;;;;5.47;3.17;;;14.20;26.30;;;;;;5031014;28;45794;-62
2022/04/19 06:48:01;;;;;;;5.93;3.17;;;13.70;27.30;;;;;;5034368;28;46070;-63
2022/04/19 06:50:27;;;;;;;6.30;2.53;;;13.20;28.40;;;;;;5032959;28;46367;-63
2022/04/19 06:52:53;;;;;;;5.50;3.63;;;13.00;28.20;;;;;;5030441;28;46377;-64
2022/04/19 06:55:21;;;;;;;6.53;2.53;;;12.80;28.30;;;;;;5033011;28;46279;-64
2022/04/19 06:57:47;;;;;;;4.43;2.70;;;12.80;28.70;;;;;;5030683;28;46453;-65
2022/04/19 07:00:14;;;;;;;3.97;2.70;;;12.70;28.80;;;;;;5033739;28;46527;-63
2022/04/19 07:02:40;;;;;;;4.73;2.70;;;12.70;29.10;;;;;;5030939;28;46437;-63
2022/04/19 07:05:06;;;;;;;5.10;2.70;;;12.70;28.90;;;;;;5031722;28;46343;-63
2022/04/19 07:07:32;;;;;;;5.60;2.93;;;12.80;29.00;;;;;;5031101;28;46269;-62
2022/04/19 07:09:58;;;;;;;4.50;2.83;;;12.80;28.90;;;;;;5030488;28;46627;-63
2022/04/19 07:12:24;;;;;;;4.40;2.60;;;12.70;28.80;;;;;;5029423;28;47292;-64
2022/04/19 07:14:50;;;;;;;5.73;3.20;;;12.50;28.90;;;;;;5028272;28;46634;-62
2022/04/19 07:17:16;;;;;;;7.00;3.07;;;12.50;28.80;;;;;;5032634;28;46456;-62
2022/04/19 07:28:03;;;;;;;5.40;2.90;;;12.20;27.70;;;;;;5034030;28;46299;-63
2022/04/19 07:30:29;;;;;;;31.63;4.47;;;12.20;27.70;;;;;;5038495;28;46685;-63
2022/04/19 07:32:56;;;;;;;4.73;2.80;;;12.40;27.80;;;;;;5031556;28;46519;-63
2022/04/19 07:35:21;;;;;;;4.80;3.10;;;12.40;27.80;;;;;;5032805;28;46428;-63
2022/04/19 07:37:47;;;;;;;5.73;3.37;;;12.50;27.90;;;;;;5034511;28;46687;-62
2022/04/19 07:40:13;;;;;;;10.03;3.37;;;12.60;27.90;;;;;;5031158;28;46375;-63
2022/04/19 07:42:38;;;;;;;5.23;3.40;;;12.70;28.00;;;;;;5034530;28;46441;-64
2022/04/19 07:45:04;;;;;;;7.33;3.57;;;12.80;28.10;;;;;;5031432;28;46512;-63
2022/04/19 07:47:32;;;;;;;6.17;2.80;;;12.90;28.10;;;;;;5030453;28;46282;-64
2022/04/19 07:49:58;;;;;;;5.20;3.57;;;12.90;27.80;;;;;;5030188;28;46269;-63
2022/04/19 07:52:24;;;;;;;11.30;3.43;;;13.00;27.90;;;;;;5027316;28;46407;-63
2022/04/19 07:54:50;;;;;;;9.10;2.90;;;13.20;27.70;;;;;;5031626;28;46566;-62
2022/04/19 07:57:19;;;;;;;5.97;3.27;;;13.30;27.20;;;;;;5027735;28;46520;-63
2022/04/19 07:59:45;;;;;;;7.93;3.40;;;13.30;26.70;;;;;;5027824;28;46451;-63
2022/04/19 08:02:10;;;;;;;4.90;2.60;;;13.30;26.60;;;;;;5031367;28;46022;-62
2022/04/19 08:04:36;;;;;;;5.43;3.13;;;13.50;26.50;;;;;;5024700;28;46639;-63
2022/04/19 08:07:02;;;;;;;8.60;3.53;;;13.50;26.40;;;;;;5030460;28;46436;-63
2022/04/19 08:09:27;;;;;;;6.67;3.53;;;13.40;25.40;;;;;;5027918;28;46306;-63
2022/04/19 08:11:53;;;;;;;6.50;2.90;;;13.40;25.20;;;;;;5033831;28;47279;-62
2022/04/19 08:14:19;;;;;;;6.30;3.70;;;13.40;25.30;;;;;;5032959;28;46481;-62
2022/04/19 08:16:45;;;;;;;6.60;4.17;;;13.50;25.30;;;;;;5039219;28;46331;-63
2022/04/19 08:19:11;;;;;;;10.20;3.50;;;13.70;25.50;;;;;;5032005;28;46386;-62
2022/04/19 08:21:36;;;;;;;7.10;4.13;;;13.90;25.50;;;;;;5030881;28;46454;-63
2022/04/19 08:24:03;;;;;;;6.73;4.20;;;14.10;24.50;;;;;;5034599;28;46465;-62
2022/04/19 08:26:29;;;;;;;7.80;3.93;;;14.00;24.00;;;;;;5030492;28;46338;-62
2022/04/19 08:28:55;;;;;;;6.47;3.77;;;14.00;23.00;;;;;;5036264;28;46403;-64
2022/04/19 08:31:20;;;;;;;7.20;3.70;;;14.00;22.90;;;;;;5025575;28;47394;-62
2022/04/19 08:33:46;;;;;;;9.47;3.80;;;14.10;23.60;;;;;;5033012;28;46406;-62
2022/04/19 08:36:11;;;;;;;6.93;4.00;;;14.20;23.20;;;;;;5029732;28;46473;-63
2022/04/19 08:38:37;;;;;;;7.80;3.87;;;13.90;21.70;;;;;;5030280;28;46469;-63
2022/04/19 08:41:04;;;;;;;10.93;4.80;;;13.70;21.70;;;;;;5032449;28;46353;-63
2022/04/19 08:43:30;;;;;;;8.80;4.00;;;13.60;22.10;;;;;;5034601;28;46629;-64
2022/04/19 08:45:56;;;;;;;10.03;3.30;;;13.80;22.60;;;;;;5028374;28;46680;-62
2022/04/19 08:48:26;;;;;;;5.93;3.73;;;13.90;22.40;;;;;;5031665;28;46058;-62
2022/04/19 08:50:54;;;;;;;7.70;4.13;;;13.70;21.80;;;;;;5029792;28;47012;-62
2022/04/19 08:58:49;;;;;;;6.70;3.90;;;14.10;22.50;;;;;;5028435;28;45767;-63
2022/04/19 09:01:14;;;;;;;9.10;3.73;;;14.30;23.40;;;;;;5028446;28;46399;-62
2022/04/19 09:03:41;;;;;;;9.90;4.97;;;14.30;22.20;;;;;;5027411;28;46459;-62
2022/04/19 09:06:07;;;;;;;6.37;3.73;;;14.40;22.40;;;;;;5034598;28;46382;-62
2022/04/19 09:08:33;;;;;;;6.17;3.80;;;14.40;21.80;;;;;;5025745;28;46449;-62
2022/04/19 09:11:06;;;;;;;6.47;3.90;;;14.50;21.80;;;;;;5032090;28;47869;-63
2022/04/19 09:13:32;;;;;;;11.53;4.20;;;14.50;22.00;;;;;;5028746;28;46451;-63
2022/04/19 09:16:04;;;;;;;8.00;3.77;;;14.60;22.20;;;;;;5031030;28;46361;-62
2022/04/19 09:18:30;;;;;;;10.03;4.37;;;14.80;22.20;;;;;;5029187;28;46429;-62
2022/04/19 09:20:57;;;;;;;6.90;3.90;;;14.90;21.80;;;;;;5031756;28;46484;-62
2022/04/19 09:23:25;;;;;;;5.80;3.67;;;14.90;21.70;;;;;;5028962;28;46659;-64
2022/04/19 09:25:56;;;;;;;6.70;3.67;;;14.80;21.40;;;;;;5026951;28;46397;-62
2022/04/19 09:28:23;;;;;;;5.30;3.30;;;15.00;21.80;;;;;;5031103;28;46474;-63
2022/04/19 09:30:57;;;;;;;9.87;3.80;;;15.20;22.10;;;;;;5028746;28;47278;-63
2022/04/19 09:33:25;;;;;;;8.93;3.87;;;15.20;21.60;;;;;;5031514;28;46488;-65
2022/04/19 09:35:56;;;;;;;5.83;3.10;;;15.00;21.10;;;;;;5025789;28;45789;-63
2022/04/19 09:38:46;;;;;;;7.30;3.60;;;15.20;21.40;;;;;;5028211;28;46540;-62
2022/04/19 09:41:35;;;;;;;7.07;3.50;;;15.50;21.50;;;;;;5026658;28;47191;-62
2022/04/19 09:44:12;;;;;;;4.73;2.93;;;15.40;20.60;;;;;;5028737;28;46379;-61
2022/04/19 09:46:38;;;;;;;6.47;3.43;;;15.40;20.00;;;;;;5027664;28;46446;-63
2022/04/19 09:49:04;;;;;;;7.60;3.03;;;15.50;20.70;;;;;;5025083;28;46344;-62
2022/04/19 09:51:31;;;;;;;5.03;3.00;;;15.60;19.60;;;;;;5029067;28;47244;-63
2022/04/19 09:53:57;;;;;;;5.93;3.40;;;15.40;19.10;;;;;;5026733;28;46380;-62
2022/04/19 09:56:23;;;;;;;6.63;2.77;;;15.50;19.30;;;;;;5029648;28;46319;-63
2022/04/19 09:58:50;;;;;;;10.43;3.50;;;15.40;18.90;;;;;;5034530;28;46389;-63
2022/04/19 10:09:37;;;;;;;5.67;2.77;;;16.30;18.60;;;;;;5030075;28;46691;-62
2022/04/19 10:12:04;;;;;;;5.43;2.60;;;16.60;17.20;;;;;;5032282;28;46310;-62
2022/04/19 10:14:31;;;;;;;8.60;2.63;;;16.10;16.40;;;;;;5026169;28;46362;-62
2022/04/19 10:16:58;;;;;;;5.10;2.50;;;16.30;17.00;;;;;;5034689;28;46451;-61
2022/04/19 10:19:25;;;;;;;4.77;2.90;;;16.40;16.80;;;;;;5029221;28;46544;-63
2022/04/19 10:21:52;;;;;;;4.30;2.67;;;16.70;17.10;;;;;;5048542;28;48071;-62
2022/04/19 10:24:19;;;;;;;4.57;2.53;;;17.20;17.10;;;;;;5031534;28;46385;-62
2022/04/19 10:26:51;;;;;;;7.50;2.80;;;17.20;16.10;;;;;;5031402;28;46567;-64
2022/04/19 10:29:20;;;;;;;19.30;3.10;;;16.90;15.80;;;;;;5031176;28;46359;-61
2022/04/19 10:32:07;;;;;;;7.67;3.07;;;16.60;15.40;;;;;;5027633;28;46441;-61
2022/04/19 10:34:36;;;;;;;6.30;2.83;;;16.70;15.50;;;;;;5029998;28;46459;-62
2022/04/19 10:37:23;;;;;;;5.73;3.03;;;16.60;16.10;;;;;;5033965;28;45933;-61
2022/04/19 10:40:12;;;;;;;6.30;2.40;;;16.40;15.50;;;;;;5037745;28;46393;-61
2022/04/19 10:42:40;;;;;;;4.00;2.40;;;16.30;15.80;;;;;;5032870;28;46374;-62
2022/04/19 10:45:15;;;;;;;5.37;2.87;;;16.10;15.60;;;;;;5041621;28;45874;-61
2022/04/19 10:47:55;;;;;;;7.43;2.97;;;15.90;16.00;;;;;;5035220;28;46324;-64
2022/04/19 10:50:33;;;;;;;6.00;2.83;;;15.90;16.00;;;;;;5037448;28;46159;-63
2022/04/19 10:53:03;;;;;;;4.83;2.70;;;15.90;16.30;;;;;;5036376;28;46731;-64
2022/04/19 10:55:36;;;;;;;5.20;3.23;;;16.00;16.50;;;;;;5035491;28;46275;-61
2022/04/19 10:58:23;;;;;;;7.70;3.70;;;16.10;15.60;;;;;;5037385;28;46263;-62
2022/04/19 11:01:00;;;;;;;8.70;3.03;;;15.90;16.10;;;;;;5030254;28;46427;-63
2022/04/19 11:03:26;;;;;;;6.77;3.30;;;16.20;16.30;;;;;;5034734;28;47954;-64
2022/04/19 11:05:57;;;;;;;6.70;3.50;;;16.50;16.10;;;;;;5029141;28;46634;-62
2022/04/19 11:08:25;;;;;;;9.03;3.00;;;16.30;15.40;;;;;;5033601;28;46525;-63
2022/04/19 11:11:04;;;;;;;3.70;2.40;;;16.40;15.90;;;;;;5039803;28;46583;-61
2022/04/19 11:13:31;;;;;;;4.70;2.77;;;16.50;15.50;;;;;;5033708;28;47084;-62
2022/04/19 11:15:58;;;;;;;4.47;2.90;;;16.40;15.40;;;;;;5033411;28;46312;-63
2022/04/19 11:18:25;;;;;;;5.63;3.40;;;16.60;15.10;;;;;;5033773;28;46383;-63
2022/04/19 11:20:53;;;;;;;7.53;4.10;;;16.10;15.10;;;;;;5029340;28;46728;-63
2022/04/19 11:23:21;;;;;;;5.40;3.10;;;16.10;15.40;;;;;;5036906;28;47035;-63
2022/04/19 11:25:48;;;;;;;7.00;3.77;;;16.20;16.10;;;;;;5030095;28;46524;-63
2022/04/19 11:28:17;;;;;;;5.47;3.20;;;16.30;15.90;;;;;;5031744;28;46240;-61
2022/04/19 11:30:44;;;;;;;6.80;3.70;;;16.10;16.70;;;;;;5031404;28;46346;-62
2022/04/19 11:33:11;;;;;;;5.73;3.13;;;15.80;15.40;;;;;;5030089;28;46440;-62
2022/04/19 11:35:36;;;;;;;4.10;2.53;;;15.70;15.70;;;;;;5032570;28;46383;-63
2022/04/19 11:38:10;;;;;;;15.63;3.07;;;15.90;15.70;;;;;;5028295;28;45900;-62
2022/04/19 11:49:06;;;;;;;5.93;3.90;;;16.70;16.10;;;;;;5027039;28;46534;-63
2022/04/19 11:51:35;;;;;;;6.90;3.17;;;16.50;15.40;;;;;;5033136;28;46518;-63
2022/04/19 11:54:02;;;;;;;9.53;3.47;;;16.40;15.90;;;;;;5027596;28;46348;-63
2022/04/19 11:56:29;;;;;;;4.90;3.33;;;16.20;16.00;;;;;;5035143;28;46327;-63
2022/04/19 11:58:58;;;;;;;6.90;3.60;;;16.20;17.10;;;;;;5030099;28;45862;-62
2022/04/19 12:01:24;;;;;;;5.73;3.47;;;16.30;16.30;;;;;;5029382;28;46319;-63
2022/04/19 12:03:49;;;;;;;4.53;2.80;;;16.50;16.10;;;;;;5029593;28;46940;-63
2022/04/19 12:06:18;;;;;;;6.10;3.43;;;16.50;15.90;;;;;;5028884;28;46545;-63
2022/04/19 12:08:52;;;;;;;6.37;3.77;;;16.70;16.00;;;;;;5029026;28;46409;-63
2022/04/19 12:11:30;;;;;;;10.67;4.10;;;16.60;16.30;;;;;;5027575;28;46360;-63
2022/04/19 12:13:57;;;;;;;6.00;3.63;;;16.60;16.40;;;;;;5033748;28;46340;-65
2022/04/19 12:16:38;;;;;;;13.60;3.80;;;16.50;16.40;;;;;;5024156;28;46371;-63
2022/04/19 12:19:08;;;;;;;6.93;3.07;;;16.50;16.50;;;;;;5030031;28;46446;-63
2022/04/19 12:21:38;;;;;;;7.03;3.33;;;16.20;15.70;;;;;;5025732;28;46382;-63
2022/04/19 12:24:08;;;;;;;5.60;3.03;;;16.30;16.00;;;;;;5027220;28;47106;-62
2022/04/19 12:26:34;;;;;;;5.30;3.17;;;16.30;14.90;;;;;;5033379;28;46434;-63
2022/04/19 12:29:12;;;;;;;5.13;3.10;;;16.20;15.20;;;;;;5035372;28;46493;-62
2022/04/19 12:31:41;;;;;;;6.20;2.77;;;16.40;14.90;;;;;;5029465;28;46718;-63
2022/04/19 12:34:10;;;;;;;4.93;3.37;;;16.60;14.70;;;;;;5033056;28;47984;-63
2022/04/19 12:36:48;;;;;;;7.13;3.90;;;16.90;15.00;;;;;;5028784;28;46280;-63
2022/04/19 12:39:15;;;;;;;5.33;3.03;;;17.00;14.50;;;;;;5030620;28;46235;-63
2022/04/19 12:41:45;;;;;;;5.40;3.40;;;17.00;14.90;;;;;;5028310;28;46423;-63
2022/04/19 12:44:16;;;;;;;10.20;3.43;;;17.00;15.20;;;;;;5028232;28;46704;-63
2022/04/19 12:46:42;;;;;;;7.50;3.90;;;17.20;14.90;;;;;;5030103;28;46437;-63
2022/04/19 12:49:26;;;;;;;5.57;3.80;;;17.20;14.90;;;;;;5023940;28;46555;-63
2022/04/19 12:52:08;;;;;;;5.97;3.10;;;16.90;14.40;;;;;;5032787;28;46453;-63
2022/04/19 12:54:36;;;;;;;5.40;3.17;;;16.80;14.80;;;;;;5026651;28;46433;-62
2022/04/19 12:57:11;;;;;;;6.30;3.57;;;16.80;14.60;;;;;;5029387;28;46410;-62
2022/04/19 12:59:36;;;;;;;9.83;4.17;;;17.10;15.30;;;;;;5026475;28;46417;-63
2022/04/19 13:02:02;;;;;;;7.87;4.60;;;16.80;14.80;;;;;;5032164;28;46496;-62
2022/04/19 13:04:28;;;;;;;10.83;4.33;;;16.70;14.90;;;;;;5034907;28;47247;-64
2022/04/19 13:12:25;;;;;;;6.93;4.77;;;16.70;15.50;;;;;;5033545;28;46352;-62
2022/04/19 13:14:54;;;;;;;8.13;4.03;;;16.80;15.20;;;;;;5038136;28;47373;-63
2022/04/19 13:17:20;;;;;;;6.50;3.80;;;16.80;14.80;;;;;;5036568;28;46393;-62
2022/04/19 13:19:46;;;;;;;5.97;3.63;;;17.00;14.90;;;;;;5036740;28;46401;-64
2022/04/19 13:22:13;;;;;;;6.40;4.13;;;17.00;14.50;;;;;;5042302;28;46496;-61
2022/04/19 13:24:39;;;;;;;7.70;4.23;;;17.20;14.50;;;;;;5034576;28;46774;-63
2022/04/19 13:27:06;;;;;;;5.67;3.93;;;17.30;14.10;;;;;;5040050;28;46448;-64
2022/04/19 13:29:36;;;;;;;5.90;3.97;;;17.50;14.30;;;;;;5035312;28;45916;-63
2022/04/19 13:32:02;;;;;;;6.17;4.23;;;17.30;13.90;;;;;;5038196;28;46426;-60
2022/04/19 13:34:28;;;;;;;5.73;3.90;;;17.00;14.50;;;;;;5035349;28;47605;-63
2022/04/19 13:36:57;;;;;;;7.83;3.53;;;16.70;14.80;;;;;;5036943;28;46709;-63
2022/04/19 13:39:23;;;;;;;7.07;3.60;;;16.70;15.20;;;;;;5034893;28;46653;-64